Weather at Domodedovo International Airport

Public forecast

Using degrees Celsius for public forecast. Weather courtesy of forecast.io.

Current aviation weather report (METAR) for Domodedovo International Airport

Retrieved 2020/10/28 12:30 UTC (45 minutes ago):

UUDD 281230Z 19005MPS 160V220 CAVOK 10/02 Q1023 R88/CLRD60 NOSIG

Aviation forecast (TAF) for Domodedovo International Airport

Retrieved 2020/10/28 12:23 UTC (52 minutes ago):

TAF UUDD 281055Z 2812/2918 18005MPS 8000 SCT016 TX11/2812Z TN01/2904Z PROB40 TEMPO 2822/2906 0300 FG FEW002